Time;durP1;ratioP1;P1;durP2;ratioP2;P2;SDS_P1;SDS_P2;PMS_P1;PMS_P2;Temp;Humidity;BMP_temperature;BMP_pressure;BME280_temperature;BME280_humidity;BME280_pressure;Samples;Min_cycle;Max_cycle;Signal;HPM_P1;HPM_P2
2023/01/27 00:01:16;;;;;;;16.15;2.28;;;;;;;6.36;66.52;102389.59;5076710;28;20059;-63
2023/01/27 00:03:44;;;;;;;15.88;2.58;;;;;;;6.30;66.95;102371.53;5076123;28;20044;-62
2023/01/27 00:06:12;;;;;;;11.20;2.70;;;;;;;6.33;66.64;102378.38;5077470;28;20040;-63
2023/01/27 00:08:39;;;;;;;11.20;1.85;;;;;;;6.29;66.74;102379.69;5083851;28;20128;-63
2023/01/27 00:13:55;;;;;;;15.00;2.72;;;;;;;6.31;66.92;102375.03;5075144;28;20104;-63
2023/01/27 00:16:23;;;;;;;12.88;2.85;;;;;;;6.30;66.40;102381.34;5081068;28;20093;-63
2023/01/27 00:18:50;;;;;;;13.18;3.22;;;;;;;6.30;66.75;102378.69;5074842;28;20048;-63
2023/01/27 00:26:51;;;;;;;18.52;3.38;;;;;;;6.33;66.67;102375.72;5073908;28;20382;-63
2023/01/27 00:29:19;;;;;;;10.65;2.60;;;;;;;6.32;66.55;102372.19;5076800;28;20437;-63
2023/01/27 00:34:31;;;;;;;7.75;2.33;;;;;;;6.32;66.52;102368.69;5082338;28;20079;-63
2023/01/27 00:36:59;;;;;;;17.00;2.83;;;;;;;6.32;66.84;102374.88;5083149;28;20156;-63
2023/01/27 00:39:27;;;;;;;13.15;2.72;;;;;;;6.33;66.65;102379.22;5077933;28;20084;-63
2023/01/27 00:41:56;;;;;;;10.30;2.90;;;;;;;6.33;66.93;102362.34;5082851;28;20083;-63
2023/01/27 00:44:24;;;;;;;14.55;2.28;;;;;;;6.34;66.43;102361.38;5076395;28;20045;-63
2023/01/27 00:46:52;;;;;;;9.68;3.33;;;;;;;6.36;66.75;102367.38;5074749;28;20052;-63
2023/01/27 00:49:20;;;;;;;7.82;2.20;;;;;;;6.36;66.19;102370.88;5082912;28;20071;-62
2023/01/27 00:51:47;;;;;;;18.15;2.78;;;;;;;6.37;66.24;102371.72;5073913;28;20083;-62
2023/01/27 00:54:15;;;;;;;11.00;2.42;;;;;;;6.35;66.52;102377.22;5065620;28;20079;-63
2023/01/27 00:56:43;;;;;;;9.27;2.03;;;;;;;6.35;66.55;102377.22;5065518;28;20139;-63
2023/01/27 00:59:12;;;;;;;14.25;3.08;;;;;;;6.38;66.30;102376.06;5077118;28;20347;-63
2023/01/27 01:01:40;;;;;;;11.82;3.10;;;;;;;6.32;65.76;102384.72;5079852;28;20056;-63
2023/01/27 01:04:08;;;;;;;11.45;3.22;;;;;;;6.28;66.25;102381.50;5073473;28;20052;-63
2023/01/27 01:06:36;;;;;;;14.85;2.83;;;;;;;6.28;66.56;102378.84;5076180;28;20104;-63
2023/01/27 01:09:04;;;;;;;8.45;2.10;;;;;;;6.29;66.46;102377.84;5081869;28;20072;-63
2023/01/27 01:11:31;;;;;;;10.05;2.60;;;;;;;6.29;66.39;102380.53;5076453;28;20056;-63
2023/01/27 01:13:59;;;;;;;10.98;2.22;;;;;;;6.29;66.51;102385.84;5079448;28;20087;-63
2023/01/27 01:16:28;;;;;;;13.65;3.00;;;;;;;6.26;66.59;102388.84;5081954;28;20132;-63
2023/01/27 01:18:58;;;;;;;10.45;2.30;;;;;;;6.26;66.64;102380.84;5081115;28;20524;-62
2023/01/27 01:21:25;;;;;;;14.00;3.53;;;;;;;6.27;66.71;102389.69;5082386;28;20044;-63
2023/01/27 01:23:53;;;;;;;12.02;2.92;;;;;;;6.17;67.32;102381.75;5092024;28;20135;-63
2023/01/27 01:26:21;;;;;;;11.07;2.47;;;;;;;6.14;67.14;102388.25;5076803;28;20052;-63
2023/01/27 01:28:49;;;;;;;12.82;3.15;;;;;;;6.14;67.07;102390.91;5074990;28;20413;-63
2023/01/27 01:31:18;;;;;;;9.65;2.65;;;;;;;6.14;67.02;102393.59;5071121;28;20110;-63
2023/01/27 01:33:48;;;;;;;15.75;2.70;;;;;;;6.13;67.29;102396.41;5083035;28;20055;-63
2023/01/27 01:36:18;;;;;;;11.30;3.10;;;;;;;6.12;66.87;102390.22;5077739;28;20044;-63
2023/01/27 01:38:46;;;;;;;13.27;2.22;;;;;;;6.07;67.15;102403.22;5082490;28;20064;-63
2023/01/27 01:41:16;;;;;;;17.85;2.65;;;;;;;6.13;67.26;102399.09;5081320;28;20091;-63
2023/01/27 01:43:45;;;;;;;13.35;2.40;;;;;;;6.16;66.97;102399.63;5076317;28;20045;-63
2023/01/27 01:46:13;;;;;;;10.90;2.58;;;;;;;6.19;66.84;102403.81;5072708;28;20053;-63
2023/01/27 01:48:45;;;;;;;7.43;2.17;;;;;;;6.20;66.77;102406.31;5073091;28;20052;-63
2023/01/27 01:51:20;;;;;;;12.82;2.63;;;;;;;6.13;66.78;102409.75;5082877;28;20059;-63
2023/01/27 01:53:51;;;;;;;9.77;2.95;;;;;;;6.08;67.38;102396.88;5082285;28;20056;-63
2023/01/27 01:56:23;;;;;;;12.73;3.63;;;;;;;6.03;66.99;102401.84;5078112;28;20048;-63
2023/01/27 01:58:55;;;;;;;15.85;3.38;;;;;;;6.07;66.80;102405.03;5082394;28;20056;-63
2023/01/27 02:01:23;;;;;;;12.18;3.17;;;;;;;6.05;66.74;102412.34;5076698;28;20052;-63
2023/01/27 02:03:54;;;;;;;9.23;2.38;;;;;;;5.95;66.53;102412.44;5082655;28;20468;-63
2023/01/27 02:06:24;;;;;;;9.90;2.72;;;;;;;5.98;66.49;102405.97;5082549;28;20103;-63
2023/01/27 02:08:51;;;;;;;15.52;2.80;;;;;;;6.04;65.97;102400.84;5078797;28;20055;-62
2023/01/27 02:11:19;;;;;;;8.80;2.25;;;;;;;6.00;65.35;102396.81;5074926;28;20053;-63
2023/01/27 02:13:47;;;;;;;14.20;3.10;;;;;;;5.97;65.98;102415.78;5077650;28;20053;-63
2023/01/27 02:16:15;;;;;;;8.40;2.30;;;;;;;5.86;66.10;102402.66;5073820;28;20064;-63
2023/01/27 02:18:43;;;;;;;10.80;2.60;;;;;;;5.99;65.90;102410.31;5072911;28;20041;-63
2023/01/27 02:21:11;;;;;;;19.20;3.63;;;;;;;6.01;65.76;102411.00;5079660;28;20116;-63
2023/01/27 02:23:58;;;;;;;16.00;3.58;;;;;;;5.92;66.19;102417.25;5082407;28;20049;-63
2023/01/27 02:26:30;;;;;;;7.35;2.30;;;;;;;6.01;65.29;102411.00;5065936;28;20459;-63
2023/01/27 02:29:00;;;;;;;11.23;3.30;;;;;;;6.02;65.57;102413.50;5079673;28;20055;-63
2023/01/27 02:31:28;;;;;;;14.73;3.65;;;;;;;6.05;65.62;102412.34;5085150;28;20048;-63
2023/01/27 02:34:02;;;;;;;11.82;2.53;;;;;;;6.04;65.70;102416.84;5083592;28;20408;-63
2023/01/27 02:36:34;;;;;;;9.32;2.58;;;;;;;6.00;65.78;102425.31;5072321;28;20198;-63
2023/01/27 02:39:03;;;;;;;12.82;2.65;;;;;;;5.96;65.87;102424.78;5065914;28;20335;-63
2023/01/27 02:41:37;;;;;;;13.70;2.80;;;;;;;6.02;65.84;102424.19;5081171;28;20052;-62
2023/01/27 02:44:05;;;;;;;12.43;2.70;;;;;;;6.00;65.80;102425.31;5076905;28;20112;-63
2023/01/27 02:46:33;;;;;;;9.77;3.42;;;;;;;5.94;65.79;102420.59;5078753;28;20067;-63
2023/01/27 02:49:01;;;;;;;10.38;3.15;;;;;;;5.99;65.37;102427.16;5081438;28;20117;-63
2023/01/27 02:51:29;;;;;;;12.50;2.92;;;;;;;5.86;65.73;102424.84;5079042;28;20054;-63
2023/01/27 02:53:57;;;;;;;18.02;2.85;;;;;;;5.78;65.86;102426.59;5076313;28;20089;-63
2023/01/27 02:56:24;;;;;;;9.90;3.33;;;;;;;5.83;65.45;102425.13;5074179;28;20072;-63
2023/01/27 02:58:55;;;;;;;13.43;3.35;;;;;;;5.82;65.52;102423.47;5076752;28;20505;-63
2023/01/27 03:01:23;;;;;;;9.93;2.95;;;;;;;5.82;65.30;102427.97;5072031;28;20080;-63
2023/01/27 03:03:52;;;;;;;8.18;3.35;;;;;;;5.71;65.53;102430.84;5083222;28;20052;-63
2023/01/27 03:06:20;;;;;;;6.97;2.95;;;;;;;5.82;65.43;102428.78;5080052;28;20051;-63
2023/01/27 03:08:48;;;;;;;12.20;3.70;;;;;;;5.90;65.37;102429.91;5079133;28;20049;-63
2023/01/27 03:12:18;;;;;;;13.05;3.45;;;;;;;5.90;64.91;102430.75;5077790;28;20045;-63
2023/01/27 03:14:05;;;;;;;20.92;5.10;;;;;;;5.72;65.00;102435.19;5078591;28;20128;-63
2023/01/27 03:19:19;;;;;;;8.68;2.92;;;;;;;5.73;65.61;102429.72;5075067;28;20410;-63
2023/01/27 03:21:49;;;;;;;13.93;3.60;;;;;;;5.74;65.58;102427.88;5085293;28;20040;-63
2023/01/27 03:24:17;;;;;;;16.45;3.95;;;;;;;5.80;65.38;102425.44;5083545;28;20171;-63
2023/01/27 03:26:45;;;;;;;9.32;3.42;;;;;;;5.74;65.67;102426.03;5079433;28;20051;-63
2023/01/27 03:32:00;;;;;;;10.48;3.75;;;;;;;5.84;65.30;102431.31;5075976;28;20483;-62
2023/01/27 03:34:28;;;;;;;11.95;3.65;;;;;;;5.90;65.35;102438.75;5084846;28;20057;-63
2023/01/27 03:47:59;;;;;;;12.55;4.55;;;;;;;5.87;65.45;102447.84;5075412;28;20128;-63
2023/01/27 03:50:36;;;;;;;16.35;4.88;;;;;;;5.87;65.23;102455.84;5080771;28;20624;-63
2023/01/27 03:53:04;;;;;;;;;;;;;;;5.81;65.51;102460.97;5080186;28;20089;-63
2023/01/27 03:55:32;;;;;;;9.25;3.78;;;;;;;5.83;65.44;102457.16;5071313;28;19960;-62
2023/01/27 03:58:13;;;;;;;10.50;3.95;;;;;;;5.85;65.03;102454.34;5086123;28;20052;-63
2023/01/27 04:00:42;;;;;;;10.95;5.10;;;;;;;5.74;65.56;102458.06;5080710;28;20036;-63
2023/01/27 04:08:42;;;;;;;14.10;5.10;;;;;;;5.77;65.63;102456.91;5080663;28;20044;-63
2023/01/27 04:14:00;;;;;;;10.32;5.13;;;;;;;5.79;65.60;102461.13;5042269;28;20094;-63
2023/01/27 04:16:30;;;;;;;17.85;6.55;;;;;;;5.77;65.94;102460.44;5068442;28;20048;-62
2023/01/27 04:18:58;;;;;;;11.75;5.03;;;;;;;5.75;65.67;102467.75;5075333;28;20044;-62
2023/01/27 04:21:26;;;;;;;16.10;5.60;;;;;;;5.80;65.86;102470.78;5066036;28;20084;-62
2023/01/27 04:23:54;;;;;;;13.98;5.97;;;;;;;5.81;66.15;102471.63;5079411;28;20044;-63
2023/01/27 04:26:22;;;;;;;11.40;6.15;;;;;;;5.84;66.03;102468.66;5076346;28;20051;-62
2023/01/27 04:28:50;;;;;;;14.70;6.28;;;;;;;5.80;66.14;102465.47;5084393;28;20112;-62
2023/01/27 04:31:18;;;;;;;12.48;5.60;;;;;;;5.83;66.26;102464.31;5081285;28;20339;-62
2023/01/27 04:33:47;;;;;;;16.63;5.97;;;;;;;5.80;66.34;102464.63;5084463;28;20052;-62
2023/01/27 04:36:15;;;;;;;12.63;6.03;;;;;;;5.81;66.26;102463.63;5082965;28;20051;-62
2023/01/27 04:38:43;;;;;;;14.48;6.15;;;;;;;5.82;66.33;102474.16;5083306;28;20044;-63
2023/01/27 04:41:11;;;;;;;13.00;6.65;;;;;;;5.85;66.02;102465.84;5075777;28;20053;-62
2023/01/27 04:43:39;;;;;;;12.98;7.13;;;;;;;5.85;66.20;102473.00;5081161;28;20100;-63
2023/01/27 04:46:07;;;;;;;12.48;6.20;;;;;;;5.87;66.09;102477.22;5081589;28;20568;-62
2023/01/27 04:48:34;;;;;;;21.98;6.93;;;;;;;5.88;66.12;102473.56;5080775;28;20079;-62
2023/01/27 04:51:04;;;;;;;15.38;6.50;;;;;;;5.91;66.23;102476.94;5078684;28;20044;-62
2023/01/27 04:53:31;;;;;;;14.38;6.60;;;;;;;5.92;66.02;102475.94;5091102;28;20076;-62
2023/01/27 04:56:03;;;;;;;13.13;6.95;;;;;;;5.91;66.11;102483.13;5081276;28;20427;-62
2023/01/27 04:58:31;;;;;;;18.75;7.55;;;;;;;5.90;66.26;102485.94;5083828;28;20051;-63
2023/01/27 05:00:59;;;;;;;13.32;6.63;;;;;;;5.90;66.40;102489.44;5077291;28;20062;-62
2023/01/27 05:03:26;;;;;;;19.25;7.95;;;;;;;5.88;66.06;102489.56;5066621;28;20117;-63
2023/01/27 05:05:54;;;;;;;14.25;7.53;;;;;;;5.90;66.05;102499.28;5083281;28;20112;-62
2023/01/27 05:08:23;;;;;;;10.73;6.43;;;;;;;5.93;65.92;102494.47;5082975;28;20055;-63
2023/01/27 05:10:51;;;;;;;13.38;6.63;;;;;;;5.91;65.98;102495.63;5081926;28;20075;-62
2023/01/27 05:13:19;;;;;;;16.70;7.30;;;;;;;5.93;65.66;102498.97;5068999;28;20056;-62
2023/01/27 05:15:47;;;;;;;12.40;6.38;;;;;;;5.92;65.97;102507.97;5078726;28;20115;-63
2023/01/27 05:18:15;;;;;;;9.93;6.55;;;;;;;5.93;65.75;102504.31;5070061;28;20054;-62
2023/01/27 05:20:43;;;;;;;13.88;7.15;;;;;;;5.92;65.70;102500.81;5082770;28;20068;-63
2023/01/27 05:25:57;;;;;;;11.52;6.43;;;;;;;5.87;65.69;102514.56;5077168;28;20055;-63
2023/01/27 05:28:24;;;;;;;13.80;7.22;;;;;;;5.87;65.78;102521.72;5082737;28;20058;-62
2023/01/27 05:31:01;;;;;;;14.30;7.07;;;;;;;5.82;66.20;102521.34;5080930;28;20086;-62
2023/01/27 05:33:29;;;;;;;12.02;7.78;;;;;;;5.80;66.22;102521.47;5073240;28;20052;-63
2023/01/27 05:36:01;;;;;;;13.23;7.93;;;;;;;5.81;66.25;102520.50;5082365;28;20048;-62
2023/01/27 05:38:29;;;;;;;13.45;6.85;;;;;;;5.75;66.73;102517.59;5082794;28;20045;-62
2023/01/27 05:41:01;;;;;;;10.75;7.13;;;;;;;5.82;66.02;102521.34;5080819;28;20044;-62
2023/01/27 05:43:30;;;;;;;11.85;7.68;;;;;;;5.71;66.41;102524.22;5083365;28;20091;-63
2023/01/27 05:46:08;;;;;;;11.85;6.78;;;;;;;5.72;66.55;102534.72;5076239;28;20048;-62
2023/01/27 05:48:37;;;;;;;12.40;7.20;;;;;;;5.68;66.70;102533.34;5081236;28;20052;-62
2023/01/27 05:51:06;;;;;;;10.25;7.20;;;;;;;5.71;66.54;102533.03;5079975;28;20041;-62
2023/01/27 05:53:35;;;;;;;16.55;8.90;;;;;;;5.75;66.45;102528.25;5067907;28;20545;-62
2023/01/27 05:56:07;;;;;;;12.48;6.47;;;;;;;5.74;66.35;102534.56;5068672;28;20072;-63
2023/01/27 05:58:35;;;;;;;16.05;7.95;;;;;;;5.72;66.28;102537.41;5077563;28;20135;-62
2023/01/27 06:01:07;;;;;;;12.10;7.15;;;;;;;5.74;66.24;102532.75;5075482;28;20106;-62
2023/01/27 06:03:36;;;;;;;12.93;6.43;;;;;;;5.71;66.12;102546.38;5069425;28;20424;-62
2023/01/27 06:06:04;;;;;;;11.55;6.63;;;;;;;5.69;66.31;102544.84;5074712;28;20051;-62
2023/01/27 06:08:32;;;;;;;12.18;6.78;;;;;;;5.72;66.15;102542.72;5076871;28;20110;-62
2023/01/27 06:11:00;;;;;;;11.23;7.05;;;;;;;5.75;66.20;102541.59;5077123;28;20060;-62
2023/01/27 06:13:29;;;;;;;11.00;6.60;;;;;;;5.76;66.15;102532.59;5091680;28;20079;-63
2023/01/27 06:15:57;;;;;;;13.40;7.55;;;;;;;5.72;66.28;102539.22;5075484;28;20059;-62
2023/01/27 06:18:25;;;;;;;11.20;7.43;;;;;;;5.75;66.27;102534.44;5080598;28;20055;-63
2023/01/27 06:20:52;;;;;;;10.00;6.22;;;;;;;5.78;66.16;102541.28;5077234;28;20064;-63
2023/01/27 06:23:20;;;;;;;11.23;7.05;;;;;;;5.68;66.12;102545.84;5064610;28;20515;-65
2023/01/27 06:25:48;;;;;;;10.50;6.97;;;;;;;5.69;66.37;102544.84;5061820;28;20107;-63
2023/01/27 06:28:17;;;;;;;10.90;6.93;;;;;;;5.67;66.32;102539.66;5075789;28;20056;-63
2023/01/27 06:31:06;;;;;;;9.30;6.72;;;;;;;5.60;66.57;102535.06;5078799;28;20033;-63
2023/01/27 06:33:34;;;;;;;10.60;6.53;;;;;;;5.64;66.35;102552.47;5080178;28;20055;-63
2023/01/27 06:36:04;;;;;;;8.77;6.20;;;;;;;5.66;66.36;102545.16;5084599;28;20059;-61
2023/01/27 06:38:32;;;;;;;12.07;6.90;;;;;;;5.79;65.91;102545.66;5085092;28;20104;-63
2023/01/27 06:41:00;;;;;;;11.18;6.00;;;;;;;5.92;65.48;102551.50;5085847;28;20139;-63
2023/01/27 06:43:28;;;;;;;13.80;7.68;;;;;;;6.07;64.75;102541.16;5080900;28;20116;-60
2023/01/27 06:45:57;;;;;;;9.35;6.40;;;;;;;6.23;64.53;102549.34;5082773;28;20054;-60
2023/01/27 06:48:28;;;;;;;10.27;6.82;;;;;;;6.43;63.61;102552.69;5078627;28;20040;-62
2023/01/27 06:50:58;;;;;;;11.18;6.35;;;;;;;6.59;63.50;102555.50;5080575;28;20135;-60
2023/01/27 06:53:30;;;;;;;11.88;6.85;;;;;;;6.83;62.58;102544.19;4827131;28;10000606;-61
2023/01/27 06:56:00;;;;;;;9.63;6.72;;;;;;;6.93;61.87;102546.75;5074911;28;20318;-60
2023/01/27 06:58:28;;;;;;;9.68;6.00;;;;;;;7.04;61.57;102536.63;5078868;28;20059;-61
2023/01/27 07:00:56;;;;;;;9.13;6.72;;;;;;;7.19;60.72;102544.91;5076989;28;20033;-61
2023/01/27 07:03:26;;;;;;;9.75;6.30;;;;;;;7.29;60.23;102540.28;5081894;28;20124;-61
2023/01/27 07:05:54;;;;;;;9.93;6.28;;;;;;;7.44;60.18;102543.19;5081344;28;20040;-61
2023/01/27 07:08:21;;;;;;;10.85;6.30;;;;;;;7.42;60.61;102542.53;5072161;28;20080;-61
2023/01/27 07:10:49;;;;;;;11.60;6.45;;;;;;;7.44;59.71;102552.06;5068512;28;20060;-63
2023/01/27 07:13:17;;;;;;;7.60;5.18;;;;;;;7.48;59.85;102549.91;5065021;28;20521;-60
2023/01/27 07:15:45;;;;;;;8.52;6.03;;;;;;;7.32;59.69;102553.34;5075080;28;20120;-61
2023/01/27 07:18:13;;;;;;;8.13;5.65;;;;;;;7.39;60.44;102559.72;5075511;28;20048;-61
2023/01/27 07:20:43;;;;;;;9.50;6.38;;;;;;;7.34;59.70;102564.72;5082068;28;20108;-61
2023/01/27 07:23:11;;;;;;;8.65;5.90;;;;;;;7.22;60.55;102567.81;5069400;28;20084;-60
2023/01/27 07:25:39;;;;;;;8.65;6.07;;;;;;;7.13;60.27;102565.09;5071516;28;20067;-60
2023/01/27 07:28:07;;;;;;;9.52;6.32;;;;;;;6.93;61.52;102573.50;5077124;28;20052;-60
2023/01/27 07:30:36;;;;;;;9.13;5.85;;;;;;;6.80;61.68;102581.91;5079493;28;20386;-59
2023/01/27 07:33:04;;;;;;;7.45;6.00;;;;;;;6.57;62.17;102572.69;5072599;28;20055;-60
2023/01/27 07:35:32;;;;;;;7.95;5.82;;;;;;;6.55;62.32;102570.16;5088753;28;20044;-60
2023/01/27 07:38:02;;;;;;;8.32;5.68;;;;;;;6.50;62.93;102575.97;5074272;28;20480;-60
2023/01/27 07:40:30;;;;;;;7.40;5.38;;;;;;;6.47;63.02;102570.94;5083523;28;20468;-60
2023/01/27 07:42:59;;;;;;;9.13;5.93;;;;;;;6.47;62.46;102568.25;5080789;28;20171;-60
2023/01/27 07:45:26;;;;;;;6.72;5.20;;;;;;;6.34;63.29;102567.81;5078424;28;20493;-61
2023/01/27 07:47:59;;;;;;;8.32;5.68;;;;;;;6.32;63.03;102569.78;5081083;28;20121;-61
2023/01/27 07:50:27;;;;;;;7.32;5.03;;;;;;;6.30;63.46;102577.09;5065476;28;20053;-59
2023/01/27 07:52:58;;;;;;;7.55;5.43;;;;;;;6.29;63.55;102574.59;5070373;28;20064;-59
2023/01/27 07:55:28;;;;;;;6.05;4.93;;;;;;;6.27;63.53;102587.25;5071285;28;20116;-59
2023/01/27 07:57:55;;;;;;;8.02;5.30;;;;;;;6.20;63.53;102587.84;5073469;28;20075;-59
2023/01/27 08:00:24;;;;;;;8.02;5.10;;;;;;;6.14;63.41;102587.59;5075309;28;20517;-59
2023/01/27 08:02:52;;;;;;;6.85;5.15;;;;;;;6.17;63.71;102592.66;5076430;28;20068;-59
2023/01/27 08:05:21;;;;;;;6.70;4.85;;;;;;;6.08;63.87;102590.88;5073570;28;20145;-60
2023/01/27 08:07:49;;;;;;;8.07;5.15;;;;;;;6.08;63.98;102591.72;5074277;28;20045;-59
2023/01/27 08:10:17;;;;;;;6.65;4.88;;;;;;;6.19;63.80;102598.69;5074310;28;20136;-59
2023/01/27 08:12:46;;;;;;;6.88;4.78;;;;;;;6.33;63.43;102594.66;5074881;28;20558;-59
2023/01/27 08:15:14;;;;;;;7.18;4.40;;;;;;;6.51;62.74;102601.69;5069106;28;20537;-59
2023/01/27 08:17:53;;;;;;;6.68;4.53;;;;;;;6.67;62.21;102590.31;5068875;28;20433;-59
2023/01/27 08:20:20;;;;;;;6.35;4.50;;;;;;;6.84;61.83;102594.81;5072826;28;20075;-59
2023/01/27 08:22:48;;;;;;;6.32;4.28;;;;;;;6.97;61.15;102597.06;5076807;28;20045;-59
2023/01/27 08:25:16;;;;;;;11.15;4.80;;;;;;;7.08;60.70;102583.44;5075547;28;20044;-60
2023/01/27 08:27:44;;;;;;;4.90;3.25;;;;;;;7.18;60.08;102586.84;5071668;28;20055;-59
2023/01/27 08:30:13;;;;;;;5.45;3.63;;;;;;;7.43;59.95;102587.00;5072233;28;20052;-60
2023/01/27 08:32:42;;;;;;;7.05;3.60;;;;;;;7.58;59.88;102590.75;5067120;28;20052;-59
2023/01/27 08:35:09;;;;;;;5.88;3.78;;;;;;;7.59;59.60;102595.13;5066376;28;20082;-59
2023/01/27 08:37:37;;;;;;;4.78;3.58;;;;;;;7.59;58.71;102597.78;5068520;28;20079;-59
2023/01/27 08:40:06;;;;;;;7.10;3.47;;;;;;;7.60;59.18;102596.78;5075295;28;20059;-59
2023/01/27 08:42:33;;;;;;;7.50;3.33;;;;;;;7.66;58.50;102606.84;5075678;28;20076;-59
2023/01/27 08:45:01;;;;;;;7.70;3.70;;;;;;;7.69;58.21;102603.03;5071611;28;20055;-59
2023/01/27 08:47:30;;;;;;;4.22;2.72;;;;;;;7.66;58.46;102603.34;5073895;28;20060;-59
2023/01/27 08:49:58;;;;;;;5.40;4.10;;;;;;;7.46;59.10;102602.72;5076680;28;20139;-59
2023/01/27 08:52:26;;;;;;;4.53;3.17;;;;;;;7.34;59.00;102601.31;5074211;28;20058;-59
2023/01/27 08:54:54;;;;;;;5.88;3.10;;;;;;;7.19;60.23;102615.25;5071462;28;20108;-59
2023/01/27 08:57:23;;;;;;;5.07;3.28;;;;;;;7.07;60.69;102611.16;5077146;28;20056;-59
2023/01/27 08:59:51;;;;;;;7.00;3.45;;;;;;;6.88;60.99;102615.88;5066301;28;20063;-58
2023/01/27 09:02:21;;;;;;;4.47;2.92;;;;;;;6.71;61.35;102622.91;5065679;28;20482;-59
2023/01/27 09:04:50;;;;;;;5.47;3.17;;;;;;;6.59;62.17;102634.81;5074975;28;20319;-59
2023/01/27 09:07:18;;;;;;;6.53;3.28;;;;;;;6.45;62.19;102630.84;5073753;28;20052;-57
2023/01/27 09:09:46;;;;;;;5.53;3.20;;;;;;;6.44;62.76;102624.66;5075445;28;20090;-61
2023/01/27 09:12:14;;;;;;;4.75;3.70;;;;;;;6.45;62.82;102629.00;5075148;28;20054;-61
2023/01/27 09:14:42;;;;;;;3.90;2.88;;;;;;;6.39;62.76;102634.09;5074561;28;20229;-70
2023/01/27 09:17:10;;;;;;;4.70;3.10;;;;;;;6.37;62.91;102641.44;5069438;28;20106;-60
2023/01/27 09:19:37;;;;;;;6.40;3.15;;;;;;;6.39;63.08;102645.63;5076319;28;20048;-60
2023/01/27 09:22:06;;;;;;;5.07;3.00;;;;;;;6.25;63.42;102639.94;5064750;28;20044;-60
2023/01/27 09:24:34;;;;;;;4.43;2.95;;;;;;;6.17;63.27;102644.22;5064029;28;20072;-60
2023/01/27 09:27:02;;;;;;;3.78;2.92;;;;;;;6.12;63.61;102638.47;5071482;28;20058;-60
2023/01/27 09:29:30;;;;;;;5.32;2.38;;;;;;;6.14;64.09;102649.00;5077496;28;20078;-60
2023/01/27 09:31:57;;;;;;;3.67;2.88;;;;;;;6.14;63.82;102657.00;5070784;28;20068;-60
2023/01/27 09:34:25;;;;;;;4.03;2.88;;;;;;;6.18;63.73;102655.72;5068554;28;20049;-60
2023/01/27 09:36:57;;;;;;;4.18;2.90;;;;;;;6.05;63.77;102648.06;5074486;28;20516;-59
2023/01/27 09:39:28;;;;;;;4.25;3.45;;;;;;;6.12;63.77;102649.16;5063591;28;20048;-60
2023/01/27 09:42:32;;;;;;;4.07;3.00;;;;;;;6.07;63.53;102658.59;5077069;28;20044;-61
2023/01/27 09:45:27;;;;;;;5.32;2.97;;;;;;;6.15;63.63;102658.69;5066975;28;20064;-61
2023/01/27 09:48:24;;;;;;;4.88;2.80;;;;;;;6.24;63.33;102655.13;5066750;28;20048;-61
2023/01/27 09:50:59;;;;;;;4.05;3.08;;;;;;;6.31;62.80;102650.03;5069904;28;20059;-61
2023/01/27 09:53:43;;;;;;;;;;;;;;;6.25;63.10;102654.16;5081779;28;20060;-61
2023/01/27 09:56:20;;;;;;;4.88;2.58;;;;;;;6.22;63.08;102656.28;5073203;28;20448;-61
2023/01/27 09:59:04;;;;;;;4.50;2.55;;;;;;;6.21;63.19;102660.78;5063341;28;20057;-61
2023/01/27 10:01:41;;;;;;;3.60;2.83;;;;;;;6.24;63.36;102657.81;5070212;28;20133;-61
2023/01/27 10:04:28;;;;;;;4.20;3.10;;;;;;;6.25;62.97;102655.97;5078507;28;20059;-61
2023/01/27 10:07:07;;;;;;;4.83;3.30;;;;;;;6.29;63.35;102665.38;5064714;28;20076;-61
2023/01/27 10:10:14;;;;;;;6.03;3.30;;;;;;;6.27;62.96;102676.19;5073564;28;20490;-60
2023/01/27 10:12:59;;;;;;;3.55;2.88;;;;;;;6.20;62.84;102664.44;5077620;28;20310;-61
2023/01/27 10:15:46;;;;;;;3.40;2.75;;;;;;;6.25;62.93;102661.31;5066045;28;20049;-61
2023/01/27 10:18:26;;;;;;;4.82;2.80;;;;;;;6.24;63.07;102657.81;5076480;28;20426;-61
2023/01/27 10:21:01;;;;;;;3.78;2.53;;;;;;;6.26;62.91;102660.31;5070074;28;20056;-61
2023/01/27 10:23:39;;;;;;;3.55;2.83;;;;;;;6.26;63.20;102663.84;5076331;28;20135;-61
2023/01/27 10:26:20;;;;;;;6.10;2.90;;;;;;;6.41;62.63;102661.50;5078498;28;20080;-59
2023/01/27 10:28:54;;;;;;;3.72;2.80;;;;;;;6.41;62.78;102656.16;5072125;28;20053;-60
2023/01/27 10:31:26;;;;;;;3.92;3.05;;;;;;;6.28;62.64;102658.34;5070906;28;20083;-61
2023/01/27 10:33:55;;;;;;;4.22;2.80;;;;;;;6.26;63.05;102658.50;5078151;28;20108;-62
2023/01/27 10:36:28;;;;;;;3.75;2.67;;;;;;;6.22;62.86;102654.44;5067950;28;20060;-62
2023/01/27 10:39:13;;;;;;;6.05;2.70;;;;;;;6.08;63.22;102657.59;5070459;28;20071;-62
2023/01/27 10:41:54;;;;;;;4.18;3.50;;;;;;;6.16;63.16;102663.88;5066730;28;20565;-63
2023/01/27 10:44:43;;;;;;;4.38;3.20;;;;;;;6.22;63.45;102650.94;5077361;28;20062;-62
2023/01/27 10:47:20;;;;;;;4.00;2.90;;;;;;;6.22;63.06;102657.13;5065648;28;20088;-63
2023/01/27 10:49:51;;;;;;;6.40;2.83;;;;;;;6.29;62.91;102668.88;5070887;28;20045;-63
2023/01/27 10:52:24;;;;;;;3.47;2.50;;;;;;;6.22;63.35;102657.13;5056926;28;20077;-62
2023/01/27 10:54:58;;;;;;;5.50;3.33;;;;;;;6.22;62.94;102656.28;5074546;28;20132;-62
2023/01/27 10:57:33;;;;;;;4.72;3.03;;;;;;;6.22;63.41;102653.59;5076612;28;20565;-62
2023/01/27 11:00:06;;;;;;;4.82;2.85;;;;;;;6.11;63.22;102654.63;5073077;28;20052;-62
2023/01/27 11:03:02;;;;;;;6.28;3.05;;;;;;;6.06;63.60;102657.75;5075327;28;20049;-62
2023/01/27 11:05:34;;;;;;;5.15;3.10;;;;;;;6.13;63.58;102658.84;5081115;28;20082;-64
2023/01/27 11:08:07;;;;;;;4.85;3.20;;;;;;;6.08;63.79;102658.44;5081751;28;20098;-63
2023/01/27 11:11:42;;;;;;;6.28;2.90;;;;;;;6.07;63.82;102648.75;5075245;28;20041;-63
2023/01/27 11:13:27;;;;;;;5.25;2.63;;;;;;;6.08;63.77;102647.78;5074492;28;20063;-64
2023/01/27 11:15:57;;;;;;;5.88;3.35;;;;;;;6.12;63.67;102653.66;5075626;28;20045;-62
2023/01/27 11:18:28;;;;;;;4.43;3.00;;;;;;;6.04;64.01;102642.88;5081209;28;20044;-62
2023/01/27 11:21:02;;;;;;;3.72;2.97;;;;;;;6.02;63.88;102639.50;5075234;28;20055;-63
2023/01/27 11:23:34;;;;;;;4.88;3.53;;;;;;;6.09;63.60;102648.59;5071706;28;20104;-62
2023/01/27 11:26:10;;;;;;;4.60;3.30;;;;;;;6.06;63.94;102647.06;5081625;28;20076;-62
2023/01/27 11:28:45;;;;;;;3.55;3.00;;;;;;;6.10;63.64;102644.94;5074444;28;20060;-62
2023/01/27 11:31:28;;;;;;;4.53;3.40;;;;;;;5.98;63.92;102649.66;5070125;28;20534;-62
2023/01/27 11:34:05;;;;;;;8.10;3.05;;;;;;;5.95;64.18;102644.59;5079009;28;20064;-62
2023/01/27 11:36:34;;;;;;;6.25;3.22;;;;;;;5.96;64.20;102645.44;5078379;28;20387;-67
2023/01/27 11:39:05;;;;;;;4.25;2.92;;;;;;;5.93;64.14;102640.41;5076350;28;20059;-62
2023/01/27 11:41:37;;;;;;;5.22;3.97;;;;;;;5.92;64.18;102638.72;5078018;28;20098;-63
2023/01/27 11:44:08;;;;;;;5.50;2.95;;;;;;;5.98;64.23;102646.13;5070151;28;20128;-63
2023/01/27 11:46:38;;;;;;;4.47;2.85;;;;;;;6.04;63.99;102641.03;5078699;28;20109;-63
2023/01/27 11:49:06;;;;;;;4.80;2.90;;;;;;;6.05;63.84;102642.72;5071707;28;20072;-63
2023/01/27 11:51:38;;;;;;;7.18;2.72;;;;;;;6.00;64.18;102641.50;5070139;28;20292;-63
2023/01/27 11:54:12;;;;;;;4.03;2.70;;;;;;;6.06;64.00;102633.72;5084045;28;20323;-63
2023/01/27 11:56:41;;;;;;;5.68;3.00;;;;;;;6.04;64.16;102640.22;5077649;28;20060;-61
2023/01/27 11:59:19;;;;;;;6.03;3.25;;;;;;;5.99;64.24;102643.31;5070960;28;20055;-64
2023/01/27 12:01:54;;;;;;;5.13;2.97;;;;;;;6.10;63.89;102629.78;5072412;28;20413;-64
2023/01/27 12:04:29;;;;;;;4.53;3.25;;;;;;;6.29;63.18;102633.31;5077033;28;20167;-64
2023/01/27 12:07:03;;;;;;;6.13;3.30;;;;;;;6.46;62.87;102636.03;5074885;28;20087;-61
2023/01/27 12:09:33;;;;;;;6.25;3.05;;;;;;;6.66;62.31;102622.53;5077549;28;20072;-61
2023/01/27 12:12:19;;;;;;;4.75;3.42;;;;;;;6.87;61.36;102623.06;5067445;28;20074;-61
2023/01/27 12:14:48;;;;;;;4.53;3.13;;;;;;;6.97;60.98;102617.59;5074103;28;20201;-62
2023/01/27 12:17:26;;;;;;;5.85;3.25;;;;;;;7.17;60.48;102622.59;5074400;28;20211;-62
2023/01/27 12:19:56;;;;;;;4.72;3.20;;;;;;;7.30;59.81;102618.69;5067802;28;20071;-61
2023/01/27 12:22:30;;;;;;;3.97;2.85;;;;;;;7.38;60.02;102616.06;5069414;28;20087;-62
2023/01/27 12:25:02;;;;;;;4.97;3.50;;;;;;;7.45;59.23;102617.94;5076439;28;20513;-62